createdAt,value
2019-05-20T00:02:34.425Z,942.3
2019-05-20T00:05:41.060Z,942.4
2019-05-20T00:08:48.031Z,942.4
2019-05-20T00:11:54.957Z,942.4
2019-05-20T00:15:01.172Z,942.4
2019-05-20T00:18:07.313Z,942.5
2019-05-20T00:21:13.720Z,942.5
2019-05-20T00:24:20.078Z,942.5
2019-05-20T00:27:26.290Z,942.5
2019-05-20T00:30:32.515Z,942.5
2019-05-20T00:33:38.681Z,942.5
2019-05-20T00:36:45.050Z,942.5
2019-05-20T00:39:51.515Z,942.6
2019-05-20T00:42:57.881Z,942.6
2019-05-20T00:46:04.164Z,942.6
2019-05-20T00:49:10.474Z,942.7
2019-05-20T00:52:16.637Z,942.6
2019-05-20T00:55:25.665Z,942.7
2019-05-20T00:58:31.987Z,942.6
2019-05-20T01:01:38.182Z,942.9
2019-05-20T01:04:44.461Z,942.6
2019-05-20T01:07:50.577Z,942.7
2019-05-20T01:10:56.889Z,942.8
2019-05-20T01:14:03.228Z,942.8
2019-05-20T01:17:09.357Z,942.7
2019-05-20T01:20:15.619Z,942.7
2019-05-20T01:23:21.953Z,942.8
2019-05-20T01:26:30.879Z,942.9
2019-05-20T01:29:37.146Z,942.8
2019-05-20T01:32:43.412Z,942.8
2019-05-20T01:35:49.577Z,942.8
2019-05-20T01:38:55.712Z,942.9
2019-05-20T01:42:01.913Z,942.7
2019-05-20T01:45:08.131Z,942.8
2019-05-20T01:48:14.290Z,942.8
2019-05-20T01:51:20.554Z,942.8
2019-05-20T01:54:26.684Z,942.9
2019-05-20T01:57:32.945Z,942.9
2019-05-20T02:00:39.164Z,942.8
2019-05-20T02:03:48.104Z,942.9
2019-05-20T02:06:54.262Z,942.8
2019-05-20T02:10:00.565Z,942.8
2019-05-20T02:13:06.696Z,942.8
2019-05-20T02:16:12.890Z,942.6
2019-05-20T02:19:19.072Z,942.6
2019-05-20T02:22:25.196Z,942.6
2019-05-20T02:25:31.489Z,942.7
2019-05-20T02:28:37.700Z,942.6
2019-05-20T02:31:43.893Z,942.7
2019-05-20T02:34:50.236Z,942.7
2019-05-20T02:37:56.710Z,942.6
2019-05-20T02:41:02.860Z,942.7
2019-05-20T02:44:09.153Z,942.7
2019-05-20T02:47:15.367Z,942.7
2019-05-20T02:50:21.626Z,942.6
2019-05-20T02:53:27.768Z,942.6
2019-05-20T02:56:34.264Z,942.7
2019-05-20T02:59:40.527Z,942.9
2019-05-20T03:02:46.688Z,942.8
2019-05-20T03:05:52.960Z,942.8
2019-05-20T03:08:59.101Z,942.9
2019-05-20T03:12:05.286Z,942.8
2019-05-20T03:15:11.557Z,942.9
2019-05-20T03:18:17.880Z,942.8
2019-05-20T03:21:24.247Z,942.9
2019-05-20T03:24:30.484Z,942.9
2019-05-20T03:27:36.672Z,942.9
2019-05-20T03:30:42.952Z,942.9
2019-05-20T03:33:49.233Z,942.8
2019-05-20T03:36:55.412Z,942.9
2019-05-20T03:40:01.612Z,943
2019-05-20T03:43:07.817Z,943.1
2019-05-20T03:46:17.298Z,943
2019-05-20T03:49:23.513Z,943.1
2019-05-20T03:52:29.699Z,943.1
2019-05-20T03:55:35.896Z,943.3
2019-05-20T03:58:42.158Z,943.4
2019-05-20T04:01:48.529Z,943.4
2019-05-20T04:05:04.419Z,943.4
2019-05-20T04:08:10.687Z,943.4
2019-05-20T04:11:17.008Z,943.3
2019-05-20T04:14:23.372Z,943.4
2019-05-20T04:17:29.532Z,943.4
2019-05-20T04:20:35.765Z,943.4
2019-05-20T04:23:42.187Z,943.4
2019-05-20T04:26:48.405Z,943.4
2019-05-20T04:29:54.656Z,943.5
2019-05-20T12:41:01.500Z,943.7
2019-05-20T12:44:14.315Z,943.9
2019-05-20T12:47:20.665Z,944.1
2019-05-20T12:50:27.116Z,944
2019-05-20T12:53:33.548Z,944.1
2019-05-20T12:56:39.953Z,944
2019-05-20T12:59:46.199Z,944.2
2019-05-20T13:02:52.587Z,944.2
2019-05-20T13:05:59.004Z,944.2
